createdAt,value
2016-08-26T00:00:04.439Z,49.38
2016-08-26T00:00:30.934Z,49.31
2016-08-26T00:00:53.664Z,49.32
2016-08-26T00:01:15.388Z,49.08
2016-08-26T00:01:38.140Z,49.12
2016-08-26T00:02:26.418Z,49.04
2016-08-26T00:02:52.921Z,49.41
2016-08-26T00:03:42.250Z,49.01
2016-08-26T00:04:04.004Z,48.75
2016-08-26T00:04:25.732Z,48.60
2016-08-26T00:04:47.511Z,48.59
2016-08-26T00:05:09.241Z,48.52
2016-08-26T00:05:30.968Z,48.50
2016-08-26T00:05:53.698Z,48.62
2016-08-26T00:06:42.930Z,48.58
2016-08-26T00:07:09.418Z,48.66
2016-08-26T00:07:31.155Z,48.68
2016-08-26T00:07:52.889Z,48.58
2016-08-26T00:08:14.644Z,48.72
2016-08-26T00:08:36.366Z,48.51
2016-08-26T00:08:58.089Z,48.62
2016-08-26T00:09:20.825Z,48.72
2016-08-26T00:09:42.578Z,48.82
2016-08-26T00:10:04.298Z,49.07
2016-08-26T00:10:28.598Z,49.08
2016-08-26T00:10:50.326Z,48.99
2016-08-26T00:11:12.060Z,48.67
2016-08-26T00:11:33.790Z,48.78
2016-08-26T00:11:58.373Z,48.77
2016-08-26T00:12:20.128Z,49.13
2016-08-26T00:12:41.868Z,49.18
2016-08-26T00:13:06.379Z,49.06
2016-08-26T00:13:28.136Z,49.26
2016-08-26T00:13:49.866Z,49.39
2016-08-26T00:14:11.599Z,49.30
2016-08-26T00:14:33.328Z,49.54
2016-08-26T00:14:55.059Z,49.44
2016-08-26T00:15:21.570Z,49.41
2016-08-26T00:16:10.848Z,49.64
2016-08-26T00:16:32.614Z,49.60
2016-08-26T00:16:59.306Z,49.33
2016-08-26T00:17:21.049Z,49.33
2016-08-26T00:17:42.777Z,49.55
2016-08-26T00:18:04.574Z,49.26
2016-08-26T00:18:26.303Z,49.38
2016-08-26T00:18:49.054Z,49.34
2016-08-26T00:19:10.783Z,49.22
2016-08-26T00:19:32.519Z,48.99
2016-08-26T00:19:54.259Z,49.20
2016-08-26T00:20:16.009Z,49.18
2016-08-26T00:20:38.739Z,49.09
2016-08-26T00:21:00.474Z,49.12
2016-08-26T00:21:22.266Z,49.50
2016-08-26T00:21:44.044Z,49.54
2016-08-26T00:22:05.767Z,49.42
2016-08-26T00:22:27.490Z,49.47
2016-08-26T00:22:49.218Z,49.70
2016-08-26T00:23:10.973Z,49.37
2016-08-26T00:23:32.692Z,49.47
2016-08-26T00:23:54.439Z,49.23
2016-08-26T00:24:16.176Z,49.17
2016-08-26T00:24:37.951Z,49.11
2016-08-26T00:24:59.673Z,49.08
2016-08-26T00:25:21.395Z,48.87
2016-08-26T00:25:47.905Z,48.89
2016-08-26T00:26:09.626Z,49.10
2016-08-26T00:26:31.345Z,48.91
2016-08-26T00:26:53.069Z,49.06
2016-08-26T00:27:19.561Z,49.27
2016-08-26T00:27:41.286Z,49.14
2016-08-26T00:28:03.007Z,49.02
2016-08-26T00:28:24.751Z,48.63
2016-08-26T00:28:46.582Z,48.56
2016-08-26T00:29:08.325Z,48.54
2016-08-26T00:29:30.067Z,48.50
2016-08-26T00:29:51.836Z,48.49
2016-08-26T00:30:13.568Z,48.53
2016-08-26T00:30:36.303Z,48.36
2016-08-26T00:30:59.086Z,48.20
2016-08-26T00:31:20.841Z,48.12
2016-08-26T00:31:42.612Z,47.86
2016-08-26T00:32:35.743Z,48.31
2016-08-26T00:32:57.463Z,48.27
2016-08-26T00:33:19.184Z,48.09
2016-08-26T00:33:45.682Z,47.95
2016-08-26T00:34:07.409Z,47.89
2016-08-26T00:34:33.903Z,47.77
2016-08-26T00:34:55.663Z,47.70
2016-08-26T00:35:17.391Z,47.80
2016-08-26T00:35:39.127Z,47.95
2016-08-26T00:36:05.634Z,47.93
2016-08-26T00:36:33.129Z,47.87
2016-08-26T00:36:54.857Z,48.35
2016-08-26T00:37:16.598Z,48.55
2016-08-26T00:37:43.087Z,48.78
2016-08-26T00:38:09.587Z,48.87
2016-08-26T00:38:31.330Z,49.27
2016-08-26T00:39:19.590Z,49.27
2016-08-26T00:39:41.350Z,49.94
2016-08-26T00:40:03.073Z,49.86
2016-08-26T00:40:24.878Z,49.99
2016-08-26T00:40:46.602Z,50.08
2016-08-26T00:41:08.321Z,49.83
2016-08-26T00:41:32.716Z,49.83
2016-08-26T00:41:54.457Z,50.09
2016-08-26T00:42:48.474Z,50.18
2016-08-26T00:43:10.203Z,49.85
2016-08-26T00:43:32.929Z,50.05
2016-08-26T00:43:54.660Z,50.31
2016-08-26T00:44:17.394Z,50.03
2016-08-26T00:44:39.149Z,49.97
2016-08-26T00:45:00.868Z,49.91
2016-08-26T00:45:22.587Z,50.03
2016-08-26T00:45:44.318Z,49.95
2016-08-26T00:46:06.063Z,50.11
2016-08-26T00:46:27.888Z,50.11
2016-08-26T00:46:49.604Z,50.15
2016-08-26T00:47:11.354Z,50.17
2016-08-26T00:47:33.084Z,50.50
2016-08-26T00:47:54.814Z,50.87
2016-08-26T00:48:16.572Z,51.11
2016-08-26T00:48:38.329Z,51.06
2016-08-26T00:49:00.061Z,51.06
2016-08-26T00:49:21.865Z,50.64
2016-08-26T00:49:43.596Z,50.66
2016-08-26T00:50:05.339Z,50.69
2016-08-26T00:50:27.066Z,50.82
2016-08-26T00:50:51.539Z,50.43
2016-08-26T00:51:18.029Z,50.02
2016-08-26T00:51:39.781Z,50.22
2016-08-26T00:52:07.108Z,50.20
2016-08-26T00:52:28.831Z,49.95
2016-08-26T00:52:50.629Z,49.79
2016-08-26T00:53:12.353Z,49.88
2016-08-26T00:53:34.082Z,50.14
2016-08-26T00:53:55.821Z,50.15
2016-08-26T00:54:17.563Z,50.11
2016-08-26T00:54:39.290Z,49.88
2016-08-26T00:55:05.790Z,50.00
2016-08-26T00:55:27.543Z,50.32
2016-08-26T00:55:49.262Z,50.15
2016-08-26T00:56:11.000Z,50.01
2016-08-26T00:56:59.231Z,50.43
2016-08-26T00:57:20.999Z,50.81
2016-08-26T00:57:42.742Z,50.63
2016-08-26T00:58:04.457Z,50.37
2016-08-26T00:58:26.172Z,50.09
2016-08-26T00:58:47.926Z,50.35
2016-08-26T00:59:14.423Z,50.43
2016-08-26T00:59:37.150Z,50.45
2016-08-26T00:59:58.895Z,50.74
2016-08-26T01:00:20.643Z,50.98
2016-08-26T01:00:42.409Z,51.14
2016-08-26T01:01:04.326Z,51.40
2016-08-26T01:01:26.058Z,51.30
2016-08-26T01:01:47.786Z,51.34
2016-08-26T01:02:09.534Z,51.29
2016-08-26T01:02:31.259Z,51.78
2016-08-26T01:02:52.982Z,52.08
2016-08-26T01:03:14.710Z,51.98
2016-08-26T01:03:36.445Z,51.48
2016-08-26T01:03:58.185Z,51.50
2016-08-26T01:04:19.933Z,51.03
2016-08-26T01:04:41.658Z,50.89
2016-08-26T01:05:03.385Z,50.69
2016-08-26T01:05:25.112Z,51.14
2016-08-26T01:05:46.842Z,51.51
2016-08-26T01:06:08.569Z,51.20
2016-08-26T01:06:30.317Z,51.47
2016-08-26T01:06:52.105Z,51.46
2016-08-26T01:07:13.834Z,51.55
2016-08-26T01:07:41.348Z,51.70
2016-08-26T01:08:03.069Z,51.72
2016-08-26T01:08:24.795Z,51.74
2016-08-26T01:08:46.516Z,51.96
2016-08-26T01:09:08.260Z,52.21
2016-08-26T01:09:34.887Z,52.64
2016-08-26T01:09:59.176Z,52.88
2016-08-26T01:10:20.958Z,52.45
2016-08-26T01:10:42.678Z,52.17
2016-08-26T01:11:04.414Z,51.91
2016-08-26T01:11:26.173Z,51.88
2016-08-26T01:11:47.969Z,51.98
2016-08-26T01:12:09.681Z,52.24
2016-08-26T01:12:31.409Z,52.23
2016-08-26T01:12:53.131Z,52.34
2016-08-26T01:13:14.873Z,52.28
2016-08-26T01:13:36.601Z,51.95
2016-08-26T01:13:58.333Z,51.65
2016-08-26T01:14:20.078Z,51.82
2016-08-26T01:14:41.864Z,51.41
2016-08-26T01:15:03.628Z,50.87
2016-08-26T01:15:30.144Z,51.14
2016-08-26T01:15:51.869Z,51.39
2016-08-26T01:16:13.589Z,51.70
2016-08-26T01:16:35.314Z,52.04
2016-08-26T01:16:57.068Z,51.82
2016-08-26T01:17:18.850Z,51.63
2016-08-26T01:17:40.573Z,51.95
2016-08-26T01:18:02.299Z,51.59
2016-08-26T01:18:24.021Z,51.20
2016-08-26T01:18:45.754Z,51.21
2016-08-26T01:19:07.479Z,51.06
2016-08-26T01:19:29.236Z,51.59
2016-08-26T01:19:51.024Z,51.48
2016-08-26T01:20:12.781Z,51.45
2016-08-26T01:20:34.498Z,51.21
2016-08-26T01:20:56.221Z,51.13
2016-08-26T01:21:17.944Z,51.18
2016-08-26T01:21:39.702Z,51.13
2016-08-26T01:22:01.522Z,51.06
2016-08-26T01:22:23.253Z,51.29
2016-08-26T01:22:44.990Z,51.26
2016-08-26T01:23:06.714Z,51.47
2016-08-26T01:23:28.438Z,51.40
2016-08-26T01:23:50.225Z,51.76
2016-08-26T01:24:11.952Z,52.01
2016-08-26T01:24:33.672Z,52.07
2016-08-26T01:24:55.417Z,52.46
2016-08-26T01:25:18.130Z,52.28
2016-08-26T01:25:44.638Z,53.10
2016-08-26T01:26:06.363Z,53.33
2016-08-26T01:26:32.868Z,53.36
2016-08-26T01:26:54.597Z,52.99
2016-08-26T01:27:16.326Z,52.26
2016-08-26T01:27:38.047Z,51.81
2016-08-26T01:27:59.864Z,51.46
2016-08-26T01:28:21.609Z,51.15
2016-08-26T01:28:43.344Z,50.95
2016-08-26T01:29:05.076Z,50.78
2016-08-26T01:29:26.801Z,51.15
2016-08-26T01:29:48.533Z,51.86
2016-08-26T01:30:11.328Z,51.96
2016-08-26T01:30:33.050Z,52.04
2016-08-26T01:30:54.800Z,52.19
2016-08-26T01:31:16.534Z,52.19
2016-08-26T01:31:38.275Z,52.11
2016-08-26T01:31:59.988Z,51.96
2016-08-26T01:32:21.721Z,52.10
2016-08-26T01:32:43.437Z,52.12
2016-08-26T01:33:05.166Z,52.44
2016-08-26T01:33:26.886Z,52.31
2016-08-26T01:33:48.713Z,52.49
2016-08-26T01:34:10.436Z,52.72
2016-08-26T01:34:37.936Z,52.60
2016-08-26T01:34:59.657Z,52.60
2016-08-26T01:35:21.425Z,52.53
2016-08-26T01:35:43.220Z,52.36
2016-08-26T01:36:04.941Z,52.41
2016-08-26T01:36:26.667Z,52.70
2016-08-26T01:36:48.399Z,52.56
2016-08-26T01:37:10.127Z,52.09
2016-08-26T01:37:31.855Z,51.78
2016-08-26T01:37:53.575Z,51.65
2016-08-26T01:38:15.341Z,52.01
2016-08-26T01:38:37.106Z,51.71
2016-08-26T01:38:58.828Z,51.52
2016-08-26T01:39:20.557Z,51.58
2016-08-26T01:39:42.320Z,52.07
2016-08-26T01:40:04.089Z,52.45
2016-08-26T01:40:25.882Z,52.94
2016-08-26T01:40:47.642Z,52.94
2016-08-26T01:41:09.367Z,53.29
2016-08-26T01:41:31.154Z,53.42
2016-08-26T01:41:52.956Z,53.15
2016-08-26T01:42:19.495Z,53.31
2016-08-26T01:42:41.227Z,53.26
2016-08-26T01:43:03.105Z,53.11
2016-08-26T01:43:24.861Z,52.76
2016-08-26T01:43:46.653Z,52.73
2016-08-26T01:44:08.407Z,52.97
2016-08-26T01:44:30.145Z,52.96
2016-08-26T01:44:51.875Z,52.59
2016-08-26T01:45:13.599Z,52.45
2016-08-26T01:45:35.322Z,52.33
2016-08-26T01:46:01.826Z,53.05
2016-08-26T01:46:24.556Z,53.07
2016-08-26T01:46:46.286Z,53.40
2016-08-26T01:47:08.010Z,53.42
2016-08-26T01:47:29.754Z,53.82
2016-08-26T01:47:51.528Z,54.05
2016-08-26T01:48:13.283Z,54.12
2016-08-26T01:48:35.031Z,54.12
2016-08-26T01:48:56.869Z,54.33
2016-08-26T01:49:18.583Z,54.17
2016-08-26T01:49:40.317Z,53.97
2016-08-26T01:50:02.050Z,54.28
2016-08-26T01:50:23.798Z,54.18
2016-08-26T01:50:45.517Z,54.15
2016-08-26T01:51:07.238Z,54.17
2016-08-26T01:51:28.990Z,53.82
2016-08-26T01:51:55.482Z,53.75
2016-08-26T01:52:17.219Z,53.69
2016-08-26T01:52:38.967Z,54.00
2016-08-26T01:53:00.694Z,53.99
2016-08-26T01:53:23.419Z,53.78
2016-08-26T01:53:45.171Z,53.45
2016-08-26T01:54:06.903Z,53.16
2016-08-26T01:54:29.625Z,53.20
2016-08-26T01:54:51.344Z,53.62
2016-08-26T01:55:13.071Z,53.39
2016-08-26T01:55:34.801Z,53.45
2016-08-26T01:55:56.530Z,53.67
2016-08-26T01:56:18.264Z,53.59
2016-08-26T01:56:39.985Z,53.95
2016-08-26T01:57:01.741Z,54.18
2016-08-26T01:57:23.460Z,53.82
2016-08-26T01:57:45.207Z,53.76
2016-08-26T01:58:06.960Z,54.03
2016-08-26T01:58:28.788Z,54.35
2016-08-26T01:58:50.503Z,54.54
2016-08-26T01:59:12.230Z,54.12
2016-08-26T01:59:34.949Z,54.07
2016-08-26T01:59:56.672Z,53.49
2016-08-26T02:00:18.387Z,54.08
2016-08-26T02:00:40.173Z,54.64
2016-08-26T02:01:01.898Z,54.36
2016-08-26T02:01:28.391Z,54.08
2016-08-26T02:01:50.129Z,54.09
2016-08-26T02:02:11.864Z,53.72
2016-08-26T02:02:33.582Z,53.43
2016-08-26T02:02:55.380Z,53.27
2016-08-26T02:03:17.115Z,52.78
2016-08-26T02:03:38.943Z,52.40
2016-08-26T02:04:00.666Z,52.49
2016-08-26T02:04:22.414Z,52.55
2016-08-26T02:04:44.141Z,53.17
2016-08-26T02:05:05.860Z,53.44
2016-08-26T02:05:27.642Z,53.17
2016-08-26T02:05:49.370Z,53.62
2016-08-26T02:06:11.111Z,53.62
2016-08-26T02:06:32.849Z,53.88
2016-08-26T02:06:59.342Z,54.05
2016-08-26T02:07:22.057Z,54.21
2016-08-26T02:07:48.599Z,54.30
2016-08-26T02:08:10.336Z,54.39
2016-08-26T02:08:32.062Z,54.08
2016-08-26T02:08:53.831Z,54.30
2016-08-26T02:09:15.687Z,54.76
2016-08-26T02:09:46.964Z,55.17
2016-08-26T02:10:08.698Z,55.24
2016-08-26T02:10:30.424Z,55.25
2016-08-26T02:10:56.922Z,55.45
2016-08-26T02:11:18.676Z,55.72
2016-08-26T02:11:40.407Z,55.67
2016-08-26T02:12:03.140Z,55.06
2016-08-26T02:12:24.885Z,54.71
2016-08-26T02:12:48.900Z,55.07
2016-08-26T02:13:11.699Z,55.18
2016-08-26T02:13:33.730Z,55.05
2016-08-26T02:13:55.589Z,55.08
2016-08-26T02:14:18.370Z,54.93
2016-08-26T02:14:40.071Z,54.98
2016-08-26T02:15:01.831Z,54.86
2016-08-26T02:15:28.343Z,54.93
2016-08-26T02:15:50.076Z,55.08
2016-08-26T02:16:12.811Z,55.37
2016-08-26T02:16:34.541Z,55.23
2016-08-26T02:16:56.265Z,54.84
2016-08-26T02:17:18.098Z,55.17
2016-08-26T02:17:44.607Z,54.59
2016-08-26T02:18:06.339Z,54.04
2016-08-26T02:18:32.862Z,53.71
2016-08-26T02:18:54.588Z,53.52
2016-08-26T02:19:16.315Z,53.74
2016-08-26T02:19:38.037Z,54.14
2016-08-26T02:19:59.775Z,54.10
2016-08-26T02:20:21.506Z,54.02
2016-08-26T02:20:43.234Z,54.28
2016-08-26T02:21:31.452Z,54.44
2016-08-26T02:21:53.188Z,54.78
2016-08-26T02:22:14.932Z,55.08
2016-08-26T02:22:36.708Z,55.12
2016-08-26T02:23:05.198Z,54.92
2016-08-26T02:23:26.926Z,54.93
2016-08-26T02:23:48.683Z,54.68
2016-08-26T02:24:10.406Z,54.88
2016-08-26T02:24:32.130Z,54.33
2016-08-26T02:24:53.848Z,54.01
2016-08-26T02:25:20.340Z,53.46
2016-08-26T02:25:46.833Z,53.26
2016-08-26T02:26:08.568Z,53.39
2016-08-26T02:26:30.286Z,53.73
2016-08-26T02:26:56.771Z,54.20
2016-08-26T02:27:18.493Z,54.19
2016-08-26T02:27:40.263Z,54.56
2016-08-26T02:28:01.981Z,54.34
2016-08-26T02:28:23.712Z,54.18
2016-08-26T02:28:45.438Z,54.68
2016-08-26T02:29:07.162Z,54.80
2016-08-26T02:29:28.926Z,54.95
2016-08-26T02:29:50.671Z,55.12
2016-08-26T02:30:12.393Z,55.17
2016-08-26T02:30:34.130Z,55.55
2016-08-26T02:30:55.848Z,55.78
2016-08-26T02:31:17.641Z,55.92
2016-08-26T02:31:40.380Z,56.06
2016-08-26T02:32:02.142Z,56.12
2016-08-26T02:32:23.918Z,55.86
2016-08-26T02:32:50.415Z,55.48
2016-08-26T02:33:12.157Z,55.37
2016-08-26T02:33:33.895Z,55.28
2016-08-26T02:33:55.640Z,54.75
2016-08-26T02:34:17.364Z,54.76
2016-08-26T02:34:41.849Z,54.83
2016-08-26T02:35:03.579Z,54.98
2016-08-26T02:35:25.304Z,55.17
2016-08-26T02:35:47.064Z,55.30
2016-08-26T02:36:08.799Z,55.33
2016-08-26T02:36:35.316Z,55.25
2016-08-26T02:36:57.030Z,55.50
2016-08-26T02:37:18.757Z,55.54
2016-08-26T02:37:40.500Z,55.77
2016-08-26T02:38:02.275Z,56.10
2016-08-26T02:38:24.012Z,56.33
2016-08-26T02:38:45.732Z,56.34
2016-08-26T02:39:33.966Z,56.36
2016-08-26T02:40:22.174Z,56.88
2016-08-26T02:40:43.896Z,57.11
2016-08-26T02:41:05.635Z,57.06
2016-08-26T02:41:27.390Z,56.95
2016-08-26T02:41:49.118Z,56.67
2016-08-26T02:42:10.837Z,56.42
2016-08-26T02:42:32.565Z,56.36
2016-08-26T02:42:54.287Z,56.28
2016-08-26T02:43:16.040Z,56.04
2016-08-26T02:43:37.764Z,55.94
2016-08-26T02:43:59.606Z,55.84
2016-08-26T02:44:21.358Z,55.38
2016-08-26T02:44:48.889Z,55.11
2016-08-26T02:45:17.855Z,54.63
2016-08-26T02:45:39.586Z,54.45
2016-08-26T02:46:01.314Z,54.38
2016-08-26T02:46:23.040Z,55.04
2016-08-26T02:46:44.785Z,54.86
2016-08-26T02:47:06.539Z,54.93
2016-08-26T02:47:28.262Z,55.35
2016-08-26T02:47:49.993Z,55.70
2016-08-26T02:48:16.958Z,55.99
2016-08-26T02:48:38.697Z,55.62
2016-08-26T02:49:02.486Z,55.72
2016-08-26T02:49:24.212Z,55.73
2016-08-26T02:50:12.456Z,54.86
2016-08-26T02:50:34.163Z,54.51
2016-08-26T02:50:55.890Z,54.39
2016-08-26T02:51:18.624Z,54.53
2016-08-26T02:51:40.350Z,54.70
2016-08-26T02:52:02.182Z,54.91
2016-08-26T02:52:23.915Z,55.47
2016-08-26T02:52:46.633Z,55.87
2016-08-26T02:53:08.346Z,55.96
2016-08-26T02:53:31.090Z,55.92
2016-08-26T02:53:57.581Z,55.59
2016-08-26T02:54:19.298Z,55.46
2016-08-26T02:54:41.021Z,55.77
2016-08-26T02:55:03.756Z,56.18
2016-08-26T02:55:25.544Z,56.44
2016-08-26T02:55:47.270Z,56.81
2016-08-26T02:56:09.062Z,56.76
2016-08-26T02:56:30.801Z,56.94
2016-08-26T02:56:52.530Z,56.97
2016-08-26T02:57:14.329Z,57.04
2016-08-26T02:57:36.057Z,56.67
2016-08-26T02:57:57.819Z,56.28
2016-08-26T02:58:19.617Z,56.18
2016-08-26T02:58:41.363Z,56.08
2016-08-26T02:59:03.167Z,55.56
2016-08-26T02:59:24.877Z,55.46
2016-08-26T02:59:46.612Z,55.51
2016-08-26T03:00:08.345Z,55.53
2016-08-26T03:00:30.088Z,55.61
2016-08-26T03:00:54.808Z,56.13
2016-08-26T03:01:21.298Z,55.71
2016-08-26T03:01:45.953Z,55.61
2016-08-26T03:02:07.691Z,55.36
2016-08-26T03:02:29.462Z,55.97
2016-08-26T03:02:51.230Z,56.22
2016-08-26T03:03:12.958Z,56.85
2016-08-26T03:03:34.787Z,56.89
2016-08-26T03:03:56.571Z,56.60
2016-08-26T03:04:18.363Z,56.47
2016-08-26T03:04:40.099Z,56.21
2016-08-26T03:05:01.820Z,55.78
2016-08-26T03:05:28.319Z,55.39
2016-08-26T03:05:51.064Z,54.98
2016-08-26T03:06:12.933Z,55.27
2016-08-26T03:06:34.658Z,55.72
2016-08-26T03:06:56.373Z,55.70
2016-08-26T03:07:18.105Z,55.67
2016-08-26T03:07:44.597Z,55.72
2016-08-26T03:08:06.327Z,55.56
2016-08-26T03:08:28.047Z,55.72
2016-08-26T03:08:49.781Z,55.51
2016-08-26T03:09:11.542Z,55.52
2016-08-26T03:09:33.401Z,56.18
2016-08-26T03:10:00.182Z,56.63
2016-08-26T03:10:26.733Z,56.87
2016-08-26T03:10:48.454Z,57.06
2016-08-26T03:11:10.180Z,57.52
2016-08-26T03:11:31.931Z,57.67
2016-08-26T03:11:53.689Z,57.17
2016-08-26T03:12:15.877Z,56.98
2016-08-26T03:12:37.713Z,56.83
2016-08-26T03:12:59.503Z,56.84
2016-08-26T03:13:21.305Z,56.71
2016-08-26T03:13:43.044Z,56.38
2016-08-26T03:14:04.768Z,55.98
2016-08-26T03:14:26.495Z,56.34
2016-08-26T03:14:48.226Z,56.68
2016-08-26T03:15:09.964Z,56.82
2016-08-26T03:15:31.685Z,57.13
2016-08-26T03:15:53.407Z,57.71
2016-08-26T03:16:15.213Z,57.99
2016-08-26T03:16:36.950Z,58.00
2016-08-26T03:17:25.196Z,58.23
2016-08-26T03:17:46.935Z,58.16
2016-08-26T03:18:08.670Z,58.02
2016-08-26T03:18:30.395Z,57.57
2016-08-26T03:18:52.124Z,57.63
2016-08-26T03:19:13.857Z,57.65
2016-08-26T03:19:35.698Z,57.02
2016-08-26T03:19:57.503Z,56.49
2016-08-26T03:20:19.221Z,56.35
2016-08-26T03:20:40.946Z,56.26
2016-08-26T03:21:02.687Z,56.52
2016-08-26T03:21:24.402Z,56.65
2016-08-26T03:21:50.887Z,56.79
2016-08-26T03:22:13.605Z,56.85
2016-08-26T03:22:35.389Z,57.10
2016-08-26T03:22:57.085Z,57.35
2016-08-26T03:23:18.810Z,57.38
2016-08-26T03:23:40.544Z,57.42
2016-08-26T03:24:02.304Z,57.51
2016-08-26T03:24:24.043Z,57.49
2016-08-26T03:24:46.226Z,57.49
2016-08-26T03:25:07.957Z,57.53
2016-08-26T03:25:30.675Z,57.49
2016-08-26T03:25:52.412Z,57.34
2016-08-26T03:26:14.147Z,57.26
2016-08-26T03:26:35.937Z,57.06
2016-08-26T03:26:57.715Z,57.25
2016-08-26T03:27:19.469Z,57.43
2016-08-26T03:27:41.251Z,57.91
2016-08-26T03:28:02.979Z,58.45
2016-08-26T03:28:24.725Z,58.92
2016-08-26T03:28:46.459Z,59.29
2016-08-26T03:29:08.231Z,58.85
2016-08-26T03:29:29.950Z,58.35
2016-08-26T03:29:51.666Z,58.12
2016-08-26T03:30:13.404Z,58.22
2016-08-26T03:30:36.116Z,58.14
2016-08-26T03:30:57.991Z,58.31
2016-08-26T03:31:19.734Z,58.52
2016-08-26T03:31:41.455Z,58.65
2016-08-26T03:32:03.176Z,58.62
2016-08-26T03:32:24.899Z,58.47
2016-08-26T03:32:51.394Z,58.43
2016-08-26T03:33:13.182Z,58.28
2016-08-26T03:33:34.904Z,58.56
2016-08-26T03:33:56.676Z,58.72
2016-08-26T03:34:18.432Z,58.55
2016-08-26T03:34:40.213Z,58.32
2016-08-26T03:35:01.943Z,58.21
2016-08-26T03:35:23.682Z,58.24
2016-08-26T03:35:45.471Z,58.25
2016-08-26T03:36:07.263Z,58.51
2016-08-26T03:36:29.014Z,58.67
2016-08-26T03:36:50.735Z,58.59
2016-08-26T03:37:12.494Z,58.56
2016-08-26T03:37:35.273Z,58.42
2016-08-26T03:37:57.016Z,58.43
2016-08-26T03:38:18.760Z,58.48
2016-08-26T03:38:40.514Z,58.89
2016-08-26T03:39:02.214Z,58.78
2016-08-26T03:39:23.930Z,59.04
2016-08-26T03:39:45.674Z,59.21
2016-08-26T03:40:12.182Z,59.06
2016-08-26T03:41:00.412Z,58.98
2016-08-26T03:41:22.136Z,59.13
2016-08-26T03:41:43.855Z,58.61
2016-08-26T03:42:05.581Z,58.07
2016-08-26T03:42:27.301Z,57.79
2016-08-26T03:42:49.052Z,57.60
2016-08-26T03:43:10.779Z,57.89
2016-08-26T03:43:32.498Z,58.12
2016-08-26T03:43:54.225Z,58.54
2016-08-26T03:44:15.944Z,58.54
2016-08-26T03:44:37.676Z,58.37
2016-08-26T03:44:59.408Z,58.07
2016-08-26T03:45:21.155Z,57.85
2016-08-26T03:45:42.978Z,57.94
2016-08-26T03:46:04.700Z,57.84
2016-08-26T03:46:26.421Z,58.34
2016-08-26T03:46:48.148Z,58.30
2016-08-26T03:47:09.876Z,58.52
2016-08-26T03:47:31.596Z,58.53
2016-08-26T03:47:53.375Z,58.99
2016-08-26T03:48:15.241Z,58.74
2016-08-26T03:48:36.982Z,58.59
2016-08-26T03:48:58.755Z,58.36
2016-08-26T03:49:20.490Z,57.99
2016-08-26T03:49:42.226Z,58.16
2016-08-26T03:50:03.951Z,57.77
2016-08-26T03:50:25.676Z,57.70
2016-08-26T03:50:47.427Z,57.41
2016-08-26T03:51:09.159Z,57.61
2016-08-26T03:51:31.007Z,57.84
2016-08-26T03:51:52.758Z,58.06
2016-08-26T03:52:14.495Z,58.23
2016-08-26T03:52:36.230Z,58.09
2016-08-26T03:53:02.797Z,58.38
2016-08-26T03:53:24.534Z,58.26
2016-08-26T03:53:47.276Z,57.93
2016-08-26T03:54:08.999Z,57.94
2016-08-26T03:54:30.735Z,57.88
2016-08-26T03:54:52.529Z,57.41
2016-08-26T03:55:14.351Z,57.38
2016-08-26T03:55:36.094Z,58.24
2016-08-26T03:55:57.820Z,58.68
2016-08-26T03:56:19.564Z,58.84
2016-08-26T03:56:42.371Z,59.25
2016-08-26T03:57:04.355Z,59.36
2016-08-26T03:57:26.271Z,59.54
2016-08-26T03:59:12.418Z,60.06
2016-08-26T03:59:34.166Z,60.17
2016-08-26T04:00:00.678Z,60.24
2016-08-26T04:00:22.404Z,60.32
2016-08-26T04:00:44.143Z,60.30
2016-08-26T04:01:05.859Z,59.99
2016-08-26T04:01:27.670Z,60.09
2016-08-26T04:01:49.380Z,60.12
2016-08-26T04:02:11.238Z,60.10
2016-08-26T04:02:32.961Z,60.24
2016-08-26T04:02:54.761Z,60.26
2016-08-26T04:03:16.486Z,59.71
2016-08-26T04:03:38.256Z,59.37
2016-08-26T04:03:59.995Z,58.98
2016-08-26T04:04:26.482Z,58.85
2016-08-26T04:05:14.715Z,58.58
2016-08-26T04:05:37.446Z,58.94
2016-08-26T04:05:59.191Z,59.31
2016-08-26T04:06:20.927Z,60.02
2016-08-26T04:06:42.747Z,60.58
2016-08-26T04:07:10.303Z,60.89
2016-08-26T04:07:36.792Z,60.53
2016-08-26T04:07:58.579Z,60.43
2016-08-26T04:08:20.357Z,60.80
2016-08-26T04:08:42.274Z,60.63
2016-08-26T04:09:04.033Z,60.26
2016-08-26T04:09:25.860Z,60.55
2016-08-26T04:09:47.580Z,59.75
2016-08-26T04:10:09.331Z,59.95
2016-08-26T04:10:35.823Z,59.58
2016-08-26T04:10:57.565Z,58.89
2016-08-26T04:11:19.315Z,58.64
2016-08-26T04:11:41.043Z,58.27
2016-08-26T04:12:02.777Z,58.52
2016-08-26T04:12:24.497Z,58.69
2016-08-26T04:12:50.986Z,58.79
2016-08-26T04:13:12.707Z,58.62
2016-08-26T04:13:34.461Z,58.51
2016-08-26T04:13:56.198Z,58.74
2016-08-26T04:14:17.923Z,59.11
2016-08-26T04:14:40.645Z,58.95
2016-08-26T04:15:02.393Z,59.45
2016-08-26T04:15:25.181Z,59.05
2016-08-26T04:15:46.911Z,59.16
2016-08-26T04:16:08.655Z,58.97
2016-08-26T04:16:30.389Z,58.58
2016-08-26T04:16:52.105Z,58.10
2016-08-26T04:17:13.877Z,57.67
2016-08-26T04:17:35.610Z,57.36
2016-08-26T04:17:57.324Z,57.59
2016-08-26T04:18:19.060Z,57.86
2016-08-26T04:18:40.802Z,57.87
2016-08-26T04:19:02.519Z,58.24
2016-08-26T04:19:24.319Z,58.36
2016-08-26T04:19:46.200Z,58.81
2016-08-26T04:20:07.967Z,59.51
2016-08-26T04:20:29.727Z,59.75
2016-08-26T04:20:51.514Z,60.15
2016-08-26T04:21:13.260Z,59.87
2016-08-26T04:21:34.981Z,59.62
2016-08-26T04:21:57.712Z,59.46
2016-08-26T04:23:06.039Z,59.07
2016-08-26T04:23:27.756Z,59.03
2016-08-26T04:23:49.497Z,58.56
2016-08-26T04:24:14.010Z,59.04
2016-08-26T04:25:07.020Z,59.64
2016-08-26T04:25:28.745Z,59.59
2016-08-26T04:25:50.481Z,59.77
2016-08-26T04:26:12.228Z,59.67
2016-08-26T04:26:33.972Z,59.25
2016-08-26T04:26:55.778Z,59.02
2016-08-26T04:27:17.499Z,59.30
2016-08-26T04:27:39.260Z,59.18
2016-08-26T04:28:00.994Z,58.95
2016-08-26T04:28:22.719Z,59.03
2016-08-26T04:28:44.454Z,59.22
2016-08-26T04:29:06.338Z,59.59
2016-08-26T04:29:37.605Z,60.04
2016-08-26T04:29:59.505Z,60.25
2016-08-26T04:30:29.659Z,60.90
2016-08-26T04:30:51.441Z,60.91
2016-08-26T04:31:13.209Z,60.84
2016-08-26T04:31:35.102Z,60.41
2016-08-26T04:31:56.854Z,60.26
2016-08-26T04:32:18.646Z,60.52
2016-08-26T04:32:40.379Z,60.00
2016-08-26T04:33:02.092Z,60.29
2016-08-26T04:33:23.848Z,60.40
2016-08-26T04:33:45.593Z,60.70
2016-08-26T04:34:07.318Z,60.92
2016-08-26T04:34:29.035Z,61.17
2016-08-26T04:34:50.759Z,60.43
2016-08-26T04:35:12.484Z,59.93
2016-08-26T04:35:34.211Z,59.57
2016-08-26T04:35:55.959Z,59.44
2016-08-26T04:36:17.671Z,59.54
2016-08-26T04:36:39.392Z,59.85
2016-08-26T04:37:05.916Z,60.16
2016-08-26T04:37:32.412Z,60.26
2016-08-26T04:37:54.126Z,59.92
2016-08-26T04:38:15.842Z,59.68
2016-08-26T04:38:37.556Z,59.38
2016-08-26T04:38:59.307Z,59.53
2016-08-26T04:39:21.043Z,59.92
2016-08-26T04:39:42.762Z,59.80
2016-08-26T04:40:04.479Z,59.72
2016-08-26T04:40:26.193Z,59.98
2016-08-26T04:40:47.910Z,59.82
2016-08-26T04:41:09.629Z,60.10
2016-08-26T04:41:31.346Z,60.25
2016-08-26T04:41:53.063Z,60.67
2016-08-26T04:42:14.778Z,61.33
2016-08-26T04:42:36.515Z,61.73
2016-08-26T04:42:58.225Z,62.34
2016-08-26T04:43:19.942Z,62.05
2016-08-26T04:43:41.664Z,61.83
2016-08-26T04:44:03.385Z,61.62
2016-08-26T04:44:25.100Z,61.49
2016-08-26T04:44:46.816Z,61.08
2016-08-26T04:45:08.529Z,60.83
2016-08-26T04:45:30.246Z,60.53
2016-08-26T04:45:51.973Z,60.97
2016-08-26T04:46:13.691Z,60.91
2016-08-26T04:46:35.406Z,60.98
2016-08-26T04:46:57.124Z,60.52
2016-08-26T04:47:18.883Z,60.13
2016-08-26T04:47:40.643Z,60.11
2016-08-26T04:48:02.361Z,59.52
2016-08-26T04:48:24.076Z,59.25
2016-08-26T04:48:45.796Z,59.23
2016-08-26T04:49:07.504Z,59.51
2016-08-26T04:49:29.219Z,59.65
2016-08-26T04:49:50.935Z,59.68
2016-08-26T04:50:12.655Z,59.55
2016-08-26T04:50:34.367Z,60.11
2016-08-26T04:50:56.080Z,60.52
2016-08-26T04:51:17.826Z,60.62
2016-08-26T04:51:39.624Z,60.58
2016-08-26T04:52:01.339Z,60.63
2016-08-26T04:52:23.055Z,60.78
2016-08-26T04:52:44.771Z,60.84
2016-08-26T04:53:06.490Z,60.96
2016-08-26T04:53:28.225Z,61.16
2016-08-26T04:53:49.939Z,61.25
2016-08-26T04:54:11.659Z,61.35
2016-08-26T04:54:33.376Z,61.39
2016-08-26T04:54:55.100Z,61.09
2016-08-26T04:55:16.821Z,60.52
2016-08-26T04:55:38.559Z,60.30
2016-08-26T04:56:00.286Z,59.99